Time;durP1;ratioP1;P1;durP2;ratioP2;P2;SDS_P1;SDS_P2;PMS_P1;PMS_P2;Temp;Humidity;BMP_temperature;BMP_pressure;BME280_temperature;BME280_humidity;BME280_pressure;Samples;Min_cycle;Max_cycle;Signal;HPM_P1;HPM_P2
2022/10/30 00:00:41;;;;;;;13.60;4.83;;;;;;;;;;5024024;28;20184;-90
2022/10/30 00:03:45;;;;;;;15.53;5.10;;;;;;;;;;5023803;28;20224;-90
2022/10/30 00:06:49;;;;;;;8.73;3.90;;;;;;;;;;5046226;28;20216;-90
2022/10/30 00:09:53;;;;;;;6.40;4.03;;;;;;;;;;5034491;28;20184;-90
2022/10/30 00:12:57;;;;;;;9.47;4.20;;;;;;;;;;5033557;28;20196;-90
2022/10/30 00:16:06;;;;;;;9.97;4.20;;;;;;;;;;5033530;28;20196;-90
2022/10/30 00:19:10;;;;;;;10.07;4.33;;;;;;;;;;5033160;28;20184;-90
2022/10/30 00:22:15;;;;;;;15.17;5.17;;;;;;;;;;5044789;28;20634;-90
2022/10/30 00:25:19;;;;;;;20.53;4.80;;;;;;;;;;5032303;28;20212;-90
2022/10/30 00:28:23;;;;;;;6.67;3.80;;;;;;;;;;5044293;28;20180;-90
2022/10/30 00:31:27;;;;;;;8.83;4.00;;;;;;;;;;5032988;28;20185;-90
2022/10/30 00:34:32;;;;;;;10.67;4.53;;;;;;;;;;5033822;28;20694;-90
2022/10/30 00:37:36;;;;;;;12.07;4.43;;;;;;;;;;5022678;28;20646;-90
2022/10/30 00:40:40;;;;;;;8.97;4.10;;;;;;;;;;5022513;28;20670;-90
2022/10/30 00:43:45;;;;;;;11.37;4.93;;;;;;;;;;5033080;28;20227;-90
2022/10/30 00:46:49;;;;;;;12.13;4.60;;;;;;;;;;5022336;28;20224;-89
2022/10/30 00:50:08;;;;;;;13.90;4.17;;;;;;;;;;5033680;28;20188;-90
2022/10/30 00:53:16;;;;;;;11.73;3.90;;;;;;;;;;5032867;28;20185;-90
2022/10/30 00:56:22;;;;;;;10.90;4.27;;;;;;;;;;5022211;28;20617;-90
2022/10/30 00:59:30;;;;;;;11.27;4.40;;;;;;;;;;5033398;28;20176;-90
2022/10/30 01:02:35;;;;;;;15.03;4.97;;;;;;;;;;5043206;28;20180;-89
2022/10/30 01:05:43;;;;;;;13.47;4.80;;;;;;;;;;5020843;28;20176;-90
2022/10/30 01:08:48;;;;;;;8.97;4.27;;;;;;;;;;5043004;28;20524;-90
2022/10/30 01:11:53;;;;;;;10.57;4.17;;;;;;;;;;5043019;28;20184;-89
2022/10/30 01:14:59;;;;;;;7.33;4.43;;;;;;;;;;5019918;28;20215;-89
2022/10/30 01:18:20;;;;;;;9.87;4.20;;;;;;;;;;5020358;28;20555;-90
2022/10/30 01:21:43;;;;;;;12.50;4.63;;;;;;;;;;5031458;28;20180;-90
2022/10/30 01:25:25;;;;;;;14.57;4.37;;;;;;;;;;5042573;28;20220;-89
2022/10/30 01:28:52;;;;;;;8.60;4.30;;;;;;;;;;5038353;28;20188;-89
2022/10/30 01:32:05;;;;;;;10.37;4.20;;;;;;;;;;5016949;28;20200;-90
2022/10/30 01:35:43;;;;;;;15.10;4.67;;;;;;;;;;5011308;28;20551;-90
2022/10/30 01:38:52;;;;;;;8.70;4.47;;;;;;;;;;5022612;28;20181;-90
2022/10/30 01:41:56;;;;;;;10.20;4.23;;;;;;;;;;5022547;28;20185;-90
2022/10/30 01:45:01;;;;;;;8.13;3.63;;;;;;;;;;5022003;28;20220;-89
2022/10/30 01:48:43;;;;;;;9.43;4.03;;;;;;;;;;5010946;28;20675;-90
2022/10/30 01:52:02;;;;;;;9.27;3.63;;;;;;;;;;5022361;28;20533;-89
2022/10/30 01:55:29;;;;;;;7.80;4.30;;;;;;;;;;5000134;28;20671;-89
2022/10/30 01:58:43;;;;;;;8.73;4.70;;;;;;;;;;5022472;28;20177;-89
2022/10/30 02:01:48;;;;;;;9.80;4.07;;;;;;;;;;5022207;28;20185;-89
2022/10/30 02:04:52;;;;;;;11.03;4.47;;;;;;;;;;5011527;28;20208;-90
2022/10/30 02:07:56;;;;;;;10.67;4.90;;;;;;;;;;5011659;28;20201;-90
2022/10/30 02:11:02;;;;;;;10.60;4.80;;;;;;;;;;5023054;28;20627;-89
2022/10/30 02:14:25;;;;;;;11.10;4.87;;;;;;;;;;5022556;28;20217;-89
2022/10/30 02:17:30;;;;;;;12.37;4.63;;;;;;;;;;5022616;28;20668;-90
2022/10/30 02:20:35;;;;;;;12.30;5.13;;;;;;;;;;5011742;28;20181;-89
2022/10/30 02:23:39;;;;;;;13.67;5.10;;;;;;;;;;5011227;28;20216;-89
2022/10/30 02:26:43;;;;;;;8.67;4.37;;;;;;;;;;5015376;28;20208;-89
2022/10/30 02:29:48;;;;;;;11.73;4.20;;;;;;;;;;5015568;28;20180;-89
2022/10/30 02:32:52;;;;;;;9.63;4.13;;;;;;;;;;5026585;28;20512;-90
2022/10/30 02:35:56;;;;;;;15.27;4.73;;;;;;;;;;5026571;28;20189;-89
2022/10/30 02:39:00;;;;;;;8.70;4.37;;;;;;;;;;5015033;28;20509;-90
2022/10/30 02:42:04;;;;;;;8.40;4.47;;;;;;;;;;5014829;28;20181;-90
2022/10/30 02:45:10;;;;;;;9.17;4.23;;;;;;;;;;5014618;28;20564;-89
2022/10/30 02:48:14;;;;;;;7.20;4.30;;;;;;;;;;5025871;28;20209;-89
2022/10/30 02:51:18;;;;;;;11.93;4.53;;;;;;;;;;5026289;28;20185;-89
2022/10/30 02:54:23;;;;;;;8.03;4.50;;;;;;;;;;5025837;28;20216;-89
2022/10/30 02:57:27;;;;;;;11.23;4.50;;;;;;;;;;5014195;28;20201;-89
2022/10/30 03:00:31;;;;;;;9.83;5.20;;;;;;;;;;5014213;28;20192;-89
2022/10/30 03:03:36;;;;;;;12.00;5.00;;;;;;;;;;5014045;28;20573;-89
2022/10/30 03:06:40;;;;;;;10.87;5.20;;;;;;;;;;5025118;28;20205;-89
2022/10/30 03:09:44;;;;;;;8.83;4.50;;;;;;;;;;5025000;28;20639;-89
2022/10/30 03:12:48;;;;;;;10.10;5.10;;;;;;;;;;5025074;28;20184;-89
2022/10/30 03:16:05;;;;;;;8.63;4.33;;;;;;;;;;5025549;28;20185;-89
2022/10/30 03:19:10;;;;;;;12.90;5.77;;;;;;;;;;5002483;28;20523;-90
2022/10/30 03:22:14;;;;;;;15.53;5.13;;;;;;;;;;5025046;28;20181;-89
2022/10/30 03:25:22;;;;;;;12.43;4.57;;;;;;;;;;5013879;28;20216;-89
2022/10/30 03:28:30;;;;;;;8.53;4.33;;;;;;;;;;5013917;28;20208;-89
2022/10/30 03:31:35;;;;;;;11.10;4.80;;;;;;;;;;5013809;28;20205;-89
2022/10/30 03:34:51;;;;;;;7.67;4.73;;;;;;;;;;5013020;28;20217;-89
2022/10/30 03:37:56;;;;;;;13.10;5.20;;;;;;;;;;5024564;28;20177;-89
2022/10/30 03:41:00;;;;;;;10.87;4.63;;;;;;;;;;5013578;28;20624;-89
2022/10/30 03:44:04;;;;;;;9.10;4.77;;;;;;;;;;5024559;28;20690;-89
2022/10/30 03:47:08;;;;;;;9.70;4.50;;;;;;;;;;5012850;28;20204;-89
2022/10/30 03:50:17;;;;;;;10.20;4.47;;;;;;;;;;5012812;28;20185;-89
2022/10/30 03:53:22;;;;;;;12.43;4.37;;;;;;;;;;5012902;28;20559;-89
2022/10/30 03:56:27;;;;;;;9.93;4.90;;;;;;;;;;5013131;28;20659;-89
2022/10/30 03:59:36;;;;;;;7.60;4.30;;;;;;;;;;5012930;28;20196;-89
2022/10/30 04:03:10;;;;;;;7.57;4.43;;;;;;;;;;5017058;28;20612;-89
2022/10/30 04:06:17;;;;;;;11.83;4.40;;;;;;;;;;5012963;28;20204;-88
2022/10/30 04:09:21;;;;;;;10.90;4.90;;;;;;;;;;5024112;28;20181;-89
2022/10/30 04:12:25;;;;;;;10.80;4.70;;;;;;;;;;5023860;28;20271;-89
2022/10/30 04:15:29;;;;;;;14.00;5.20;;;;;;;;;;5023978;28;20180;-89
2022/10/30 04:18:34;;;;;;;7.43;4.00;;;;;;;;;;5035397;28;20178;-89
2022/10/30 04:21:38;;;;;;;8.33;4.70;;;;;;;;;;5023897;28;20624;-89
2022/10/30 04:24:43;;;;;;;9.40;4.60;;;;;;;;;;5023848;28;20212;-89
2022/10/30 04:27:48;;;;;;;9.87;4.53;;;;;;;;;;5012641;28;20204;-89
2022/10/30 04:30:52;;;;;;;8.43;4.37;;;;;;;;;;5023593;28;20181;-89
2022/10/30 04:33:56;;;;;;;10.67;4.70;;;;;;;;;;5012435;28;20209;-89
2022/10/30 04:37:01;;;;;;;12.53;4.67;;;;;;;;;;5012761;28;20177;-89
2022/10/30 04:40:06;;;;;;;11.87;4.80;;;;;;;;;;5023611;28;20177;-89
2022/10/30 04:43:20;;;;;;;10.60;4.77;;;;;;;;;;5023437;28;20220;-89
2022/10/30 04:46:30;;;;;;;13.90;5.87;;;;;;;;;;5012061;28;20177;-88
2022/10/30 04:49:40;;;;;;;12.90;4.43;;;;;;;;;;5001503;28;20184;-89
2022/10/30 04:52:45;;;;;;;6.77;4.17;;;;;;;;;;5000658;28;20201;-89
2022/10/30 04:55:53;;;;;;;8.40;4.27;;;;;;;;;;5011879;28;20177;-89
2022/10/30 04:58:58;;;;;;;7.90;4.27;;;;;;;;;;5011943;28;20173;-89
2022/10/30 05:02:03;;;;;;;15.17;5.23;;;;;;;;;;5022939;28;20185;-89
2022/10/30 05:05:07;;;;;;;8.70;4.73;;;;;;;;;;5022687;28;20216;-89
2022/10/30 05:08:12;;;;;;;10.63;4.07;;;;;;;;;;5022364;28;20637;-89
2022/10/30 05:11:17;;;;;;;14.83;5.17;;;;;;;;;;5011356;28;20177;-89
2022/10/30 05:14:21;;;;;;;6.60;4.20;;;;;;;;;;5011813;28;20686;-89
2022/10/30 05:17:25;;;;;;;15.60;4.37;;;;;;;;;;5012173;28;20189;-89
2022/10/30 05:20:30;;;;;;;9.43;4.57;;;;;;;;;;5000211;28;20177;-89
2022/10/30 05:23:35;;;;;;;7.43;4.63;;;;;;;;;;5011001;28;20218;-89
2022/10/30 05:26:40;;;;;;;7.87;4.70;;;;;;;;;;5000769;28;20659;-89
2022/10/30 05:29:44;;;;;;;12.37;5.07;;;;;;;;;;5022363;28;20624;-89
2022/10/30 05:32:48;;;;;;;11.50;4.63;;;;;;;;;;5011250;28;20185;-89
2022/10/30 05:35:53;;;;;;;8.23;4.70;;;;;;;;;;5022708;28;20185;-88
2022/10/30 05:38:57;;;;;;;11.10;4.83;;;;;;;;;;5000296;28;20173;-90
2022/10/30 05:42:09;;;;;;;7.40;4.53;;;;;;;;;;5000706;28;20192;-89
2022/10/30 05:45:20;;;;;;;9.43;4.23;;;;;;;;;;5000925;28;20707;-89
2022/10/30 05:48:24;;;;;;;6.80;4.27;;;;;;;;;;5000844;28;20212;-89
2022/10/30 05:51:29;;;;;;;7.60;4.70;;;;;;;;;;5011995;28;20180;-89
2022/10/30 05:54:38;;;;;;;6.77;4.20;;;;;;;;;;5001362;28;20213;-89
2022/10/30 05:58:06;;;;;;;9.07;4.57;;;;;;;;;;5003665;28;20178;-89
2022/10/30 06:01:11;;;;;;;10.70;4.90;;;;;;;;;;5000732;28;20184;-89
2022/10/30 06:04:20;;;;;;;7.87;4.43;;;;;;;;;;5022777;28;20220;-89
2022/10/30 06:07:25;;;;;;;9.33;5.50;;;;;;;;;;5000258;28;20228;-89
2022/10/30 06:10:30;;;;;;;7.97;4.50;;;;;;;;;;5011791;28;20192;-89
2022/10/30 06:14:03;;;;;;;7.97;4.90;;;;;;;;;;5022043;28;20691;-89
2022/10/30 06:17:33;;;;;;;8.77;5.00;;;;;;;;;;5023175;28;20181;-88
2022/10/30 06:20:50;;;;;;;12.63;5.20;;;;;;;;;;5001299;28;20536;-89
2022/10/30 06:24:26;;;;;;;10.00;4.87;;;;;;;;;;5015909;28;20216;-89
2022/10/30 06:28:00;;;;;;;9.77;4.70;;;;;;;;;;5020778;28;20204;-89
2022/10/30 06:31:05;;;;;;;7.87;4.53;;;;;;;;;;4999755;28;20192;-89
2022/10/30 06:34:09;;;;;;;8.67;4.93;;;;;;;;;;5010656;28;20221;-89
2022/10/30 06:37:17;;;;;;;11.27;4.90;;;;;;;;;;5010795;28;20207;-88
2022/10/30 06:40:22;;;;;;;8.87;5.20;;;;;;;;;;5010630;28;20181;-89
2022/10/30 06:43:35;;;;;;;12.63;6.27;;;;;;;;;;5011614;28;20228;-89
2022/10/30 06:46:43;;;;;;;9.10;5.20;;;;;;;;;;5001312;28;20176;-90
2022/10/30 06:49:47;;;;;;;10.13;5.00;;;;;;;;;;5013073;28;20172;-89
2022/10/30 06:52:51;;;;;;;8.97;5.30;;;;;;;;;;5013056;28;20185;-89
2022/10/30 06:55:58;;;;;;;7.50;5.13;;;;;;;;;;5012694;28;20181;-89
2022/10/30 06:59:25;;;;;;;7.97;5.10;;;;;;;;;;5024186;28;20180;-90
2022/10/30 07:02:55;;;;;;;11.10;4.87;;;;;;;;;;5019280;28;20181;-89
2022/10/30 07:06:00;;;;;;;12.17;6.03;;;;;;;;;;5019462;28;20177;-89
2022/10/30 07:09:04;;;;;;;7.47;5.07;;;;;;;;;;5020176;28;20201;-89
2022/10/30 07:12:09;;;;;;;12.40;5.87;;;;;;;;;;5011622;28;20181;-89
2022/10/30 07:15:26;;;;;;;11.80;5.27;;;;;;;;;;5022487;28;20181;-89
2022/10/30 07:18:39;;;;;;;13.40;6.93;;;;;;;;;;5012319;28;20177;-89
2022/10/30 07:21:43;;;;;;;12.33;7.27;;;;;;;;;;5010450;28;20181;-89
2022/10/30 07:24:47;;;;;;;12.30;6.70;;;;;;;;;;5020865;28;20216;-88
2022/10/30 07:28:03;;;;;;;11.10;5.73;;;;;;;;;;5011277;28;20217;-89
2022/10/30 07:31:25;;;;;;;9.33;5.57;;;;;;;;;;5030814;28;20193;-89
2022/10/30 07:34:30;;;;;;;13.20;5.73;;;;;;;;;;5019938;28;20691;-89
2022/10/30 07:38:06;;;;;;;8.00;5.10;;;;;;;;;;5010839;28;20204;-89
2022/10/30 07:41:22;;;;;;;9.23;5.90;;;;;;;;;;5008714;28;20184;-89
2022/10/30 07:44:28;;;;;;;11.73;5.67;;;;;;;;;;5016750;28;20687;-89
2022/10/30 07:47:47;;;;;;;10.10;6.07;;;;;;;;;;5007452;28;20185;-89
2022/10/30 07:51:00;;;;;;;9.93;6.10;;;;;;;;;;5006169;28;20185;-89
2022/10/30 07:54:04;;;;;;;13.27;5.57;;;;;;;;;;5004345;28;20216;-89
2022/10/30 07:57:08;;;;;;;12.37;6.00;;;;;;;;;;5004080;28;20177;-89
2022/10/30 08:00:31;;;;;;;10.67;5.77;;;;;;;;;;5017710;28;20177;-89
2022/10/30 08:03:50;;;;;;;8.30;5.80;;;;;;;;;;5017269;28;20217;-89
2022/10/30 08:07:05;;;;;;;14.30;5.67;;;;;;;;;;5025860;28;20181;-89
2022/10/30 08:10:09;;;;;;;9.87;6.00;;;;;;;;;;5002986;28;20524;-89
2022/10/30 08:13:13;;;;;;;10.87;6.07;;;;;;;;;;5014500;28;20185;-89
2022/10/30 08:16:18;;;;;;;9.97;5.07;;;;;;;;;;5003515;28;20172;-89
2022/10/30 08:19:22;;;;;;;7.93;4.60;;;;;;;;;;5014670;28;20173;-89
2022/10/30 08:22:26;;;;;;;11.40;5.17;;;;;;;;;;5016976;28;20208;-89
2022/10/30 08:25:36;;;;;;;10.57;4.97;;;;;;;;;;5014680;28;20181;-89
2022/10/30 08:28:41;;;;;;;12.60;5.20;;;;;;;;;;5003276;28;20201;-89
2022/10/30 08:31:48;;;;;;;6.60;4.37;;;;;;;;;;5014474;28;20185;-89
2022/10/30 08:34:58;;;;;;;11.83;5.37;;;;;;;;;;5013491;28;20221;-89
2022/10/30 08:38:03;;;;;;;14.43;5.33;;;;;;;;;;5002309;28;20181;-89
2022/10/30 08:41:08;;;;;;;8.40;5.40;;;;;;;;;;5014300;28;20177;-89
2022/10/30 08:44:18;;;;;;;16.80;6.60;;;;;;;;;;5013498;28;20224;-89
2022/10/30 08:47:41;;;;;;;11.80;6.87;;;;;;;;;;5015926;28;20177;-89
2022/10/30 08:50:45;;;;;;;14.40;6.93;;;;;;;;;;5003076;28;20181;-89
2022/10/30 08:53:55;;;;;;;14.07;6.07;;;;;;;;;;5014469;28;20225;-89
2022/10/30 08:57:00;;;;;;;15.47;6.03;;;;;;;;;;5002933;28;20176;-89
2022/10/30 09:00:06;;;;;;;11.37;5.80;;;;;;;;;;5012734;28;20201;-89
2022/10/30 09:03:39;;;;;;;10.43;5.93;;;;;;;;;;5016629;28;20213;-89
2022/10/30 09:07:06;;;;;;;13.50;5.50;;;;;;;;;;5027352;28;20181;-89
2022/10/30 09:10:19;;;;;;;11.83;5.10;;;;;;;;;;5023565;28;20208;-89
2022/10/30 09:13:24;;;;;;;10.73;5.53;;;;;;;;;;5023485;28;20250;-89
2022/10/30 09:16:29;;;;;;;9.93;5.83;;;;;;;;;;5000990;28;20204;-89
2022/10/30 09:19:33;;;;;;;13.37;7.03;;;;;;;;;;5012258;28;20509;-89
2022/10/30 09:22:41;;;;;;;11.43;5.60;;;;;;;;;;5001702;28;20516;-88
2022/10/30 09:25:45;;;;;;;12.73;5.57;;;;;;;;;;5001007;28;20193;-90
2022/10/30 09:28:56;;;;;;;9.17;4.73;;;;;;;;;;5012031;28;20220;-88
2022/10/30 09:32:19;;;;;;;11.00;5.00;;;;;;;;;;5014996;28;20185;-88
2022/10/30 09:35:40;;;;;;;15.13;5.30;;;;;;;;;;5015523;28;20177;-88
2022/10/30 09:38:44;;;;;;;8.53;5.20;;;;;;;;;;5024276;28;20188;-88
2022/10/30 09:42:22;;;;;;;12.07;5.10;;;;;;;;;;5013520;28;20177;-89
2022/10/30 09:45:56;;;;;;;10.10;4.50;;;;;;;;;;5022465;23;20234;-89
2022/10/30 09:49:36;;;;;;;8.40;6.37;;;;;;;;;;4965284;28;20207;-89
2022/10/30 09:53:26;;;;;;;7.63;4.57;;;;;;;;;;4965498;28;20187;-90
2022/10/30 09:56:52;;;;;;;9.17;4.70;;;;;;;;;;4883586;29;20574;-90
2022/10/30 10:00:05;;;;;;;10.37;4.47;;;;;;;;;;4945044;29;20175;-90
2022/10/30 10:03:37;;;;;;;15.83;4.70;;;;;;;;;;4946849;29;20540;-90
2022/10/30 10:07:24;;;;;;;15.10;4.57;;;;;;;;;;4952885;28;20206;-90
2022/10/30 10:10:47;;;;;;;10.17;4.33;;;;;;;;;;4952979;28;20227;-90
2022/10/30 10:14:07;;;;;;;15.67;5.43;;;;;;;;;;4952967;28;20638;-90
2022/10/30 10:17:17;;;;;;;16.07;5.00;;;;;;;;;;4952492;28;20539;-90
2022/10/30 10:20:38;;;;;;;11.13;5.00;;;;;;;;;;4953272;28;20187;-90
2022/10/30 10:24:02;;;;;;;9.90;4.30;;;;;;;;;;4963989;28;20638;-90
2022/10/30 10:27:43;;;;;;;19.70;4.13;;;;;;;;;;4953196;28;20185;-90
2022/10/30 10:31:06;;;;;;;16.43;4.60;;;;;;;;;;4963752;28;20188;-90
2022/10/30 10:34:25;;;;;;;13.93;4.07;;;;;;;;;;4952673;28;20521;-90
2022/10/30 10:37:41;;;;;;;14.60;4.63;;;;;;;;;;4965582;28;20185;-90
2022/10/30 10:40:57;;;;;;;16.17;4.47;;;;;;;;;;4952158;28;20192;-90
2022/10/30 10:44:20;;;;;;;14.80;4.57;;;;;;;;;;4951941;28;20536;-90
2022/10/30 10:47:46;;;;;;;9.97;3.97;;;;;;;;;;4956078;28;20181;-90
2022/10/30 10:51:05;;;;;;;16.20;4.67;;;;;;;;;;4945590;28;20520;-90
2022/10/30 10:54:11;;;;;;;10.67;3.53;;;;;;;;;;4956592;28;20233;-90
2022/10/30 10:57:28;;;;;;;10.40;4.20;;;;;;;;;;4956680;28;20179;-90
2022/10/30 11:00:33;;;;;;;14.90;3.87;;;;;;;;;;4967816;28;20336;-90
2022/10/30 11:03:58;;;;;;;11.77;3.87;;;;;;;;;;4958789;28;20182;-90
2022/10/30 11:07:18;;;;;;;11.07;4.10;;;;;;;;;;4981824;28;20184;-89
2022/10/30 11:10:24;;;;;;;9.30;4.00;;;;;;;;;;4956744;28;20223;-90
2022/10/30 11:13:33;;;;;;;15.53;4.17;;;;;;;;;;4946349;28;20507;-90
2022/10/30 11:16:50;;;;;;;10.73;4.40;;;;;;;;;;4967657;28;20187;-90
2022/10/30 11:20:01;;;;;;;10.63;3.90;;;;;;;;;;4945852;28;20172;-89
2022/10/30 11:23:29;;;;;;;13.57;4.70;;;;;;;;;;4946198;28;20200;-90
2022/10/30 11:26:34;;;;;;;14.27;4.73;;;;;;;;;;4936125;29;20180;-90
2022/10/30 11:29:56;;;;;;;11.63;3.83;;;;;;;;;;4948446;29;20219;-89
2022/10/30 11:33:21;;;;;;;14.43;4.23;;;;;;;;;;4958965;29;20188;-89
2022/10/30 11:36:25;;;;;;;18.13;4.97;;;;;;;;;;4958417;29;20188;-90
2022/10/30 11:39:32;;;;;;;16.00;4.80;;;;;;;;;;4926632;29;20183;-90
2022/10/30 11:42:59;;;;;;;14.90;4.33;;;;;;;;;;4958280;29;20188;-89
2022/10/30 11:46:08;;;;;;;11.90;4.83;;;;;;;;;;4936291;29;20231;-90
2022/10/30 11:49:50;;;;;;;10.90;4.20;;;;;;;;;;4947598;29;20661;-89
2022/10/30 11:53:14;;;;;;;15.70;4.93;;;;;;;;;;4963797;28;20188;-90
2022/10/30 11:56:20;;;;;;;12.23;4.60;;;;;;;;;;4946307;28;20220;-90
2022/10/30 11:59:25;;;;;;;10.43;4.53;;;;;;;;;;4925334;29;20184;-90
2022/10/30 12:02:42;;;;;;;13.57;4.43;;;;;;;;;;4936347;29;20631;-89
2022/10/30 12:05:48;;;;;;;11.43;4.37;;;;;;;;;;4946986;29;20227;-90
2022/10/30 12:09:12;;;;;;;9.73;4.30;;;;;;;;;;4925272;29;20187;-90
2022/10/30 12:12:21;;;;;;;15.43;4.63;;;;;;;;;;4957643;29;20184;-89
2022/10/30 12:15:26;;;;;;;12.07;3.80;;;;;;;;;;4935600;29;20219;-89
2022/10/30 12:18:32;;;;;;;14.23;3.97;;;;;;;;;;4958086;29;20203;-90
2022/10/30 12:21:39;;;;;;;12.80;3.60;;;;;;;;;;4935934;29;20176;-89
2022/10/30 12:24:44;;;;;;;11.60;3.93;;;;;;;;;;4947157;28;20223;-90
2022/10/30 12:27:56;;;;;;;13.47;3.80;;;;;;;;;;4958913;29;20184;-90
2022/10/30 12:31:25;;;;;;;9.63;3.60;;;;;;;;;;4925616;29;20207;-90
2022/10/30 12:34:55;;;;;;;17.07;3.90;;;;;;;;;;4946768;28;20690;-90
2022/10/30 12:38:04;;;;;;;16.43;3.80;;;;;;;;;;4946543;29;20621;-90
2022/10/30 12:41:34;;;;;;;8.73;3.63;;;;;;;;;;4945309;29;20183;-90
2022/10/30 12:44:47;;;;;;;15.70;3.97;;;;;;;;;;4934303;28;20229;-90
2022/10/30 12:48:13;;;;;;;17.10;3.53;;;;;;;;;;4925220;29;20623;-90
2022/10/30 12:51:34;;;;;;;14.80;3.50;;;;;;;;;;4957676;29;20690;-90
2022/10/30 12:54:53;;;;;;;13.30;3.00;;;;;;;;;;4947223;28;20225;-90
2022/10/30 12:58:03;;;;;;;11.47;3.53;;;;;;;;;;4945233;29;20182;-90
2022/10/30 13:01:26;;;;;;;14.77;3.60;;;;;;;;;;4923259;29;20179;-90
2022/10/30 13:04:40;;;;;;;14.57;3.47;;;;;;;;;;4934195;28;20220;-90
2022/10/30 13:07:50;;;;;;;10.80;3.50;;;;;;;;;;4955981;28;20193;-90
2022/10/30 13:11:18;;;;;;;12.88;3.60;;;;;;;;;;4944885;29;20217;-91
2022/10/30 13:14:33;;;;;;;10.23;3.50;;;;;;;;;;4934026;28;20700;-91
2022/10/30 13:17:37;;;;;;;17.27;3.78;;;;;;;;;;4945352;29;20194;-91
2022/10/30 13:20:47;;;;;;;14.85;3.92;;;;;;;;;;4934604;29;20191;-90
2022/10/30 13:24:01;;;;;;;15.90;3.90;;;;;;;;;;4945173;29;20196;-91
2022/10/30 13:27:11;;;;;;;7.13;3.30;;;;;;;;;;4933964;29;20186;-90
2022/10/30 13:30:20;;;;;;;10.13;3.35;;;;;;;;;;4945122;29;20215;-90
2022/10/30 13:33:38;;;;;;;14.03;3.93;;;;;;;;;;4945227;29;20635;-91
2022/10/30 13:37:15;;;;;;;12.93;3.30;;;;;;;;;;4955958;29;20666;-90
2022/10/30 13:40:25;;;;;;;14.13;3.50;;;;;;;;;;4932966;29;20693;-91
2022/10/30 13:43:41;;;;;;;9.73;3.30;;;;;;;;;;4944844;29;20189;-90
2022/10/30 13:47:01;;;;;;;11.43;3.70;;;;;;;;;;4944944;29;20189;-91
2022/10/30 13:50:25;;;;;;;14.07;3.70;;;;;;;;;;4933453;29;20221;-90
2022/10/30 13:53:32;;;;;;;18.60;3.30;;;;;;;;;;4956269;29;20182;-90
2022/10/30 13:56:39;;;;;;;12.00;3.27;;;;;;;;;;4955561;29;20181;-90
2022/10/30 14:00:04;;;;;;;8.30;2.50;;;;;;;;;;4944761;29;20181;-90
2022/10/30 14:03:23;;;;;;;9.63;3.33;;;;;;;;;;4955683;29;20192;-91
2022/10/30 14:06:34;;;;;;;14.60;3.87;;;;;;;;;;4933332;29;20200;-91
2022/10/30 14:09:51;;;;;;;12.90;3.60;;;;;;;;;;4933704;29;20521;-90
2022/10/30 14:12:55;;;;;;;15.10;3.60;;;;;;;;;;4933662;29;20177;-90
2022/10/30 14:16:05;;;;;;;11.20;3.63;;;;;;;;;;4933229;29;20220;-90
2022/10/30 14:19:12;;;;;;;12.87;3.50;;;;;;;;;;4933119;29;20187;-91
2022/10/30 14:22:24;;;;;;;10.50;2.87;;;;;;;;;;4933069;29;20647;-90
2022/10/30 14:25:27;;;;;;;13.40;3.00;;;;;;;;;;4932819;29;20226;-90
2022/10/30 14:28:36;;;;;;;10.53;3.10;;;;;;;;;;4944020;29;20183;-90
2022/10/30 14:31:40;;;;;;;12.00;3.40;;;;;;;;;;4944163;29;20211;-90
2022/10/30 14:34:56;;;;;;;12.47;3.57;;;;;;;;;;4955627;28;20220;-90
2022/10/30 14:38:06;;;;;;;9.33;3.07;;;;;;;;;;4954679;29;20184;-90
2022/10/30 14:41:48;;;;;;;10.17;2.93;;;;;;;;;;4955192;29;20520;-90
2022/10/30 14:45:14;;;;;;;9.77;3.27;;;;;;;;;;4954953;28;20607;-90
2022/10/30 14:48:58;;;;;;;14.50;3.00;;;;;;;;;;4922091;29;20181;-90
2022/10/30 14:52:39;;;;;;;11.37;3.40;;;;;;;;;;4955199;29;20181;-90
2022/10/30 14:55:46;;;;;;;12.93;3.67;;;;;;;;;;4934802;29;20228;-90
2022/10/30 14:59:14;;;;;;;11.20;3.30;;;;;;;;;;4933158;29;20201;-90
2022/10/30 15:02:36;;;;;;;9.80;3.23;;;;;;;;;;4954651;29;20183;-90
2022/10/30 15:06:01;;;;;;;12.43;3.57;;;;;;;;;;4955285;28;20215;-90
2022/10/30 15:09:18;;;;;;;10.57;3.80;;;;;;;;;;4932970;29;20185;-90
2022/10/30 15:12:49;;;;;;;10.23;4.03;;;;;;;;;;4932964;29;20172;-90
2022/10/30 15:16:07;;;;;;;8.63;4.00;;;;;;;;;;4925154;29;20223;-90
2022/10/30 15:19:13;;;;;;;9.70;3.50;;;;;;;;;;4922109;29;20188;-90
2022/10/30 15:22:20;;;;;;;10.93;4.10;;;;;;;;;;4933977;29;20180;-90
2022/10/30 15:25:32;;;;;;;7.80;3.93;;;;;;;;;;4955359;28;20219;-90
2022/10/30 15:28:40;;;;;;;14.73;3.70;;;;;;;;;;4944606;29;20631;-89
2022/10/30 15:32:18;;;;;;;11.77;3.60;;;;;;;;;;4924862;29;20211;-89
2022/10/30 15:35:27;;;;;;;15.30;4.27;;;;;;;;;;4949042;29;20218;-90
2022/10/30 15:38:32;;;;;;;8.30;3.97;;;;;;;;;;4959362;29;20180;-89
2022/10/30 15:42:03;;;;;;;11.77;4.60;;;;;;;;;;4958854;29;20180;-89
2022/10/30 15:45:30;;;;;;;12.23;3.90;;;;;;;;;;4991571;23;20241;-79
2022/10/30 15:48:38;;;;;;;8.33;3.43;;;;;;;;;;5017504;23;20229;-77
2022/10/30 15:51:45;;;;;;;14.00;4.53;;;;;;;;;;4999487;28;20233;-77
2022/10/30 15:55:00;;;;;;;13.33;4.63;;;;;;;;;;5003885;28;20659;-77
2022/10/30 15:58:04;;;;;;;13.00;4.30;;;;;;;;;;4992862;28;20182;-77
2022/10/30 16:01:23;;;;;;;10.30;3.63;;;;;;;;;;5015624;28;20225;-77
2022/10/30 16:04:34;;;;;;;13.00;4.00;;;;;;;;;;5005047;28;20186;-77
2022/10/30 16:07:44;;;;;;;16.97;4.30;;;;;;;;;;5016988;28;20178;-77
2022/10/30 16:10:52;;;;;;;10.40;4.17;;;;;;;;;;4993007;28;20233;-77
2022/10/30 16:14:03;;;;;;;16.57;4.00;;;;;;;;;;5016008;28;20178;-77
2022/10/30 16:17:09;;;;;;;8.97;4.23;;;;;;;;;;5016104;28;20202;-77
2022/10/30 16:20:16;;;;;;;10.93;3.77;;;;;;;;;;5003022;28;20206;-77
2022/10/30 16:23:21;;;;;;;7.60;3.80;;;;;;;;;;4992262;28;20177;-77
2022/10/30 16:26:35;;;;;;;15.13;4.30;;;;;;;;;;5002942;28;20185;-77
2022/10/30 16:29:39;;;;;;;10.10;3.80;;;;;;;;;;5003186;28;20186;-77
2022/10/30 16:32:51;;;;;;;7.40;3.87;;;;;;;;;;4992150;28;20525;-77
2022/10/30 16:35:56;;;;;;;10.30;3.80;;;;;;;;;;5003518;28;20182;-77
2022/10/30 16:39:01;;;;;;;10.43;4.47;;;;;;;;;;5003325;28;20177;-77
2022/10/30 16:42:06;;;;;;;11.43;4.33;;;;;;;;;;5015197;28;20675;-77
2022/10/30 16:45:10;;;;;;;10.80;4.37;;;;;;;;;;5015119;28;20186;-77
2022/10/30 16:48:20;;;;;;;13.67;4.20;;;;;;;;;;5003440;28;20565;-78
2022/10/30 16:51:24;;;;;;;10.97;4.73;;;;;;;;;;5002897;28;20233;-77
2022/10/30 16:54:32;;;;;;;12.60;5.50;;;;;;;;;;5003308;28;20185;-80
2022/10/30 16:57:42;;;;;;;8.80;4.10;;;;;;;;;;5003535;28;20177;-79
2022/10/30 17:00:50;;;;;;;10.83;4.77;;;;;;;;;;5015062;28;20225;-77
2022/10/30 17:03:55;;;;;;;13.37;4.73;;;;;;;;;;5014942;28;20181;-77
2022/10/30 17:07:26;;;;;;;9.83;4.57;;;;;;;;;;4981045;28;20178;-77
2022/10/30 17:10:43;;;;;;;17.20;4.40;;;;;;;;;;5002228;28;20178;-77
2022/10/30 17:13:58;;;;;;;16.83;4.90;;;;;;;;;;5002904;28;20178;-77
2022/10/30 17:17:02;;;;;;;11.90;4.90;;;;;;;;;;5014826;28;20186;-77
2022/10/30 17:20:25;;;;;;;8.70;4.70;;;;;;;;;;4980457;28;20663;-77
2022/10/30 17:23:29;;;;;;;10.67;4.43;;;;;;;;;;5002700;28;20174;-77
2022/10/30 17:26:40;;;;;;;11.97;5.10;;;;;;;;;;5002651;28;20177;-77
2022/10/30 17:29:45;;;;;;;15.50;4.73;;;;;;;;;;5002908;28;20181;-77
2022/10/30 17:32:55;;;;;;;7.20;4.30;;;;;;;;;;4982999;28;20189;-77
2022/10/30 17:36:01;;;;;;;11.23;5.57;;;;;;;;;;5014386;28;20620;-77
2022/10/30 17:39:05;;;;;;;13.33;5.10;;;;;;;;;;5002569;28;20669;-77
2022/10/30 17:42:10;;;;;;;17.27;5.43;;;;;;;;;;5002226;28;20209;-77
2022/10/30 17:45:16;;;;;;;10.73;4.73;;;;;;;;;;5002630;28;20181;-77
2022/10/30 17:48:24;;;;;;;13.93;5.83;;;;;;;;;;5001831;28;20202;-77
2022/10/30 17:51:28;;;;;;;9.37;4.93;;;;;;;;;;5001893;28;20225;-77
2022/10/30 17:54:32;;;;;;;14.03;5.47;;;;;;;;;;5013098;28;20178;-77
2022/10/30 17:57:36;;;;;;;13.17;5.07;;;;;;;;;;5002068;28;20177;-78
2022/10/30 18:00:40;;;;;;;9.93;5.00;;;;;;;;;;5014450;28;20216;-77
2022/10/30 18:03:44;;;;;;;13.60;5.33;;;;;;;;;;4979991;28;20182;-78
2022/10/30 18:06:48;;;;;;;12.03;5.07;;;;;;;;;;5014435;28;20190;-77
2022/10/30 18:09:53;;;;;;;20.27;5.40;;;;;;;;;;5014379;28;20182;-78
2022/10/30 18:12:57;;;;;;;13.57;6.20;;;;;;;;;;4980380;28;20228;-78
2022/10/30 18:16:02;;;;;;;11.63;4.40;;;;;;;;;;5004581;28;20173;-78
2022/10/30 18:19:09;;;;;;;14.00;5.80;;;;;;;;;;5018642;28;20181;-77
2022/10/30 18:22:13;;;;;;;13.53;5.50;;;;;;;;;;5019221;28;20213;-78
2022/10/30 18:25:26;;;;;;;13.17;6.07;;;;;;;;;;5019073;28;20497;-77
2022/10/30 18:28:30;;;;;;;6.97;5.00;;;;;;;;;;5006578;28;20177;-78
2022/10/30 18:31:35;;;;;;;15.63;5.33;;;;;;;;;;5005778;28;20225;-77
2022/10/30 18:34:39;;;;;;;15.37;5.30;;;;;;;;;;5017346;28;20177;-77
2022/10/30 18:37:43;;;;;;;16.50;5.23;;;;;;;;;;4982441;28;20173;-77
2022/10/30 18:40:49;;;;;;;14.17;6.13;;;;;;;;;;5004964;28;20213;-77
2022/10/30 18:43:54;;;;;;;12.07;6.20;;;;;;;;;;4982396;28;20178;-78
2022/10/30 18:46:58;;;;;;;13.67;6.17;;;;;;;;;;5004040;28;20197;-77
2022/10/30 18:50:02;;;;;;;10.20;5.53;;;;;;;;;;5015844;28;20205;-77
2022/10/30 18:53:15;;;;;;;10.77;5.20;;;;;;;;;;4992442;28;20209;-77
2022/10/30 18:56:31;;;;;;;15.43;6.80;;;;;;;;;;5002853;28;20181;-77